This is the latest recevied weather packets stored in our database for station/object OE-11140. If no packets are shown the sender has not sent any weather packets the latest 10 day(s).
| Time | Temp. | Humidity | Pressure | Rain* | Wind** | Luminosity | Snow |
|---|---|---|---|---|---|---|---|
| 1788069316 | 12.78° C | 92% | 1019.2 hPa | 0 mm | - | 33 W/m² | - |
| 1788068489 | 12.78° C | 92% | 1019.1 hPa | 0 mm | - | 33 W/m² | - |
| 1788068116 | 12.78° C | 93% | 1019.1 hPa | 0 mm | - | 40 W/m² | - |
| 1788067516 | 12.78° C | 93% | 1019.1 hPa | 0 mm | - | 33 W/m² | - |
| 1788066689 | 12.78° C | 92% | 1019 hPa | 0 mm | - | 20 W/m² | - |
| 1788066316 | 12.22° C | 93% | 1019.1 hPa | 0 mm | - | 13 W/m² | - |
| 1788065715 | 12.22° C | 93% | 1019 hPa | 0 mm | - | 7 W/m² | - |
| 1788064888 | 12.22° C | 93% | 1019.1 hPa | 0 mm | - | 0 W/m² | - |
| 1788064515 | 12.78° C | 92% | 1018.9 hPa | 0 mm | - | 0 W/m² | - |
| 1788063916 | 12.78° C | 92% | 1018.9 hPa | 0 mm | - | 0 W/m² | - |
| 1788063088 | 13.33° C | 90% | 1018.8 hPa | 0 mm | - | 0 W/m² | - |
| 1788062716 | 12.78° C | 91% | 1018.9 hPa | 0 mm | - | 0 W/m² | - |
| 1788060916 | 13.33° C | 91% | 1018.8 hPa | 0 mm | - | 0 W/m² | - |
| 1788040516 | 15.56° C | 80% | 1017 hPa | 0 mm | - | 0 W/m² | - |
| 1788039690 | 15.56° C | 82% | 1017.1 hPa | 0 mm | - | 0 W/m² | - |
| 1788039316 | 15.56° C | 83% | 1017 hPa | 0 mm | - | 0 W/m² | - |
| 1788038716 | 15.56° C | 83% | 1017 hPa | 0 mm | - | 0 W/m² | - |
| 1788037516 | 16.11° C | 81% | 1016.6 hPa | 0 mm | - | 0 W/m² | - |
| 1788036916 | 16.67° C | 80% | 1016.5 hPa | 0 mm | - | 0 W/m² | - |
| 1788036090 | 16.67° C | 80% | 1016.4 hPa | 0 mm | - | 0 W/m² | - |
| 1788035716 | 17.22° C | 76% | 1016.2 hPa | 0 mm | - | 0 W/m² | - |
| 1788035116 | 17.78° C | 75% | 1016.1 hPa | 0 mm | - | 0 W/m² | - |
| 1788034289 | 17.78° C | 75% | 1016.1 hPa | 0 mm | - | 0 W/m² | - |
| 1788033916 | 17.78° C | 75% | 1016 hPa | 0 mm | - | 0 W/m² | - |
| 1788033317 | 17.78° C | 78% | 1016 hPa | 0 mm | - | 0 W/m² | - |
* Rain latest hour (hover to see other rain measurements)
** Current wind speed in m/s (hover to see current wind gust speed)